Time;durP1;ratioP1;P1;durP2;ratioP2;P2;SDS_P1;SDS_P2;PMS_P1;PMS_P2;Temp;Humidity;BMP_temperature;BMP_pressure;BME280_temperature;BME280_humidity;BME280_pressure;Samples;Min_cycle;Max_cycle;Signal;HPM_P1;HPM_P2
2022/07/15 00:00:48;;;;;;;3.27;1.40;;;21.30;65.80;;;;;;5047007;28;20553;-81
2022/07/15 00:03:36;;;;;;;2.80;1.63;;;21.30;65.70;;;;;;5031129;28;20496;-85
2022/07/15 00:06:41;;;;;;;3.37;1.87;;;21.30;66.30;;;;;;4978102;28;20587;-86
2022/07/15 00:09:10;;;;;;;8.53;1.73;;;21.30;66.50;;;;;;4974056;28;20614;-85
2022/07/15 00:11:38;;;;;;;1.70;1.50;;;21.30;66.60;;;;;;4988044;28;20581;-85
2022/07/15 00:14:05;;;;;;;3.43;1.87;;;21.10;67.20;;;;;;4989194;28;20455;-87
2022/07/15 00:16:59;;;;;;;3.27;1.67;;;21.00;68.00;;;;;;4975414;28;20530;-83
2022/07/15 00:19:28;;;;;;;1.47;1.33;;;21.10;68.30;;;;;;4972069;28;21833;-88
2022/07/15 00:22:00;;;;;;;4.00;2.07;;;21.00;68.70;;;;;;4988529;28;20543;-86
2022/07/15 00:24:30;;;;;;;2.30;1.67;;;20.90;69.30;;;;;;4988312;28;20474;-86
2022/07/15 00:26:58;;;;;;;4.57;1.73;;;20.90;69.60;;;;;;4988568;28;20473;-84
2022/07/15 00:29:25;;;;;;;3.43;1.67;;;20.90;70.30;;;;;;4972483;28;20484;-85
2022/07/15 00:31:59;;;;;;;3.13;1.73;;;20.70;70.50;;;;;;4971025;28;20514;-84
2022/07/15 00:34:27;;;;;;;4.67;1.60;;;20.70;71.20;;;;;;4970188;28;20463;-85
2022/07/15 00:36:57;;;;;;;2.30;1.77;;;20.70;71.50;;;;;;4985550;28;21104;-85
2022/07/15 00:39:24;;;;;;;4.60;2.07;;;20.60;71.80;;;;;;4971970;28;20535;-86
2022/07/15 00:41:56;;;;;;;2.27;1.90;;;20.50;72.60;;;;;;5002880;28;20488;-85
2022/07/15 00:44:32;;;;;;;3.00;2.00;;;20.40;73.80;;;;;;5032616;28;20732;-85
2022/07/15 00:47:05;;;;;;;2.70;2.37;;;20.40;74.80;;;;;;5029725;28;20456;-85
2022/07/15 00:49:41;;;;;;;3.13;1.70;;;20.50;74.60;;;;;;5028652;28;20586;-86
2022/07/15 00:52:12;;;;;;;2.27;1.40;;;20.30;75.50;;;;;;5031814;28;20460;-86
2022/07/15 00:54:49;;;;;;;3.83;1.83;;;20.30;76.60;;;;;;5029317;28;20457;-85
2022/07/15 00:57:17;;;;;;;5.20;1.87;;;20.30;76.40;;;;;;5030826;28;20469;-86
2022/07/15 01:00:03;;;;;;;2.43;2.10;;;20.20;77.60;;;;;;5033674;28;20472;-85
2022/07/15 01:02:43;;;;;;;6.10;1.90;;;20.20;77.70;;;;;;5034465;28;20866;-85
2022/07/15 01:05:26;;;;;;;1.60;1.50;;;20.30;78.10;;;;;;5050481;28;20434;-86
2022/07/15 01:07:53;;;;;;;5.43;2.10;;;20.40;78.10;;;;;;5035156;28;20484;-86
2022/07/15 01:10:30;;;;;;;2.03;1.80;;;20.20;79.10;;;;;;5034507;28;20481;-86
2022/07/15 01:13:23;;;;;;;3.00;1.80;;;20.00;80.10;;;;;;5038286;28;20445;-85
2022/07/15 01:15:51;;;;;;;5.07;2.23;;;20.10;79.70;;;;;;5043028;28;20472;-85
2022/07/15 01:18:18;;;;;;;3.23;2.30;;;19.90;80.30;;;;;;5047592;28;20469;-86
2022/07/15 01:20:55;;;;;;;2.90;1.80;;;19.80;80.80;;;;;;5042990;28;20514;-85
2022/07/15 01:23:31;;;;;;;5.37;1.93;;;19.90;81.40;;;;;;5027461;28;20558;-84
2022/07/15 01:26:03;;;;;;;4.77;2.13;;;19.90;81.30;;;;;;5026663;28;20465;-85
2022/07/15 01:28:43;;;;;;;4.70;3.40;;;19.80;82.60;;;;;;5027724;28;20853;-85
2022/07/15 01:31:44;;;;;;;5.90;2.70;;;19.80;82.40;;;;;;5044991;28;20442;-85
2022/07/15 01:34:14;;;;;;;2.60;2.03;;;19.90;81.70;;;;;;5029148;28;20966;-84
2022/07/15 01:36:53;;;;;;;6.37;2.47;;;19.90;82.20;;;;;;5030146;28;20477;-84
2022/07/15 01:39:42;;;;;;;5.27;2.20;;;19.80;83.10;;;;;;5027606;28;20466;-84
2022/07/15 01:42:09;;;;;;;6.60;2.40;;;19.60;83.20;;;;;;5045650;28;20489;-85
2022/07/15 01:44:37;;;;;;;3.83;2.10;;;19.80;83.70;;;;;;5030165;28;20452;-84
2022/07/15 01:47:12;;;;;;;7.47;2.40;;;19.70;84.10;;;;;;5027268;28;20449;-85
2022/07/15 01:49:39;;;;;;;6.57;2.20;;;19.80;84.90;;;;;;5028828;28;21391;-86
2022/07/15 01:52:09;;;;;;;4.33;2.73;;;19.70;84.60;;;;;;5029386;28;20464;-85
2022/07/15 01:54:36;;;;;;;5.90;2.60;;;19.70;85.20;;;;;;5031009;28;20951;-87
2022/07/15 01:57:03;;;;;;;7.53;2.67;;;19.70;85.00;;;;;;5027775;28;20454;-84
2022/07/15 01:59:34;;;;;;;3.80;2.13;;;19.80;85.10;;;;;;5029211;28;20489;-89
2022/07/15 02:02:01;;;;;;;4.40;2.30;;;19.80;85.40;;;;;;5027611;28;20457;-85
2022/07/15 02:04:52;;;;;;;9.80;2.80;;;19.70;85.50;;;;;;5031014;28;20524;-86
2022/07/15 02:07:19;;;;;;;4.83;2.57;;;20.00;84.60;;;;;;5028555;28;20469;-86
2022/07/15 02:09:46;;;;;;;2.47;1.70;;;19.80;84.10;;;;;;5028930;28;20477;-86
2022/07/15 02:12:13;;;;;;;5.43;1.83;;;19.70;84.90;;;;;;5031348;28;20464;-85
2022/07/15 02:14:40;;;;;;;4.43;2.40;;;19.70;85.30;;;;;;5031726;28;20457;-85
2022/07/15 02:17:09;;;;;;;7.10;2.63;;;19.80;84.70;;;;;;5029752;28;20465;-85
2022/07/15 02:19:39;;;;;;;2.50;1.70;;;19.70;84.60;;;;;;5028113;28;20485;-85
2022/07/15 02:22:08;;;;;;;3.27;1.60;;;19.70;84.70;;;;;;5027329;28;20458;-83
2022/07/15 02:24:35;;;;;;;5.13;2.10;;;19.70;84.80;;;;;;5026895;28;20577;-84
2022/07/15 02:27:03;;;;;;;3.00;2.13;;;20.00;84.10;;;;;;5026017;28;20478;-86
2022/07/15 02:29:31;;;;;;;4.13;2.67;;;19.80;83.80;;;;;;5024284;28;20511;-84
2022/07/15 02:31:58;;;;;;;5.67;2.37;;;19.80;83.70;;;;;;5024216;28;20470;-83
2022/07/15 02:34:29;;;;;;;10.30;2.23;;;19.70;84.30;;;;;;5026236;28;20874;-81
2022/07/15 02:36:56;;;;;;;4.87;2.10;;;19.70;84.40;;;;;;5023752;28;20476;-84
2022/07/15 02:39:27;;;;;;;6.07;1.80;;;19.60;85.00;;;;;;5033639;28;20554;-84
2022/07/15 02:41:58;;;;;;;6.07;2.40;;;19.50;85.20;;;;;;5030467;28;20458;-84
2022/07/15 02:44:36;;;;;;;6.87;1.97;;;19.30;86.00;;;;;;5028477;28;20484;-85
2022/07/15 02:47:08;;;;;;;2.80;1.80;;;19.20;86.30;;;;;;5029758;28;20467;-85
2022/07/15 02:49:50;;;;;;;5.03;1.80;;;19.20;85.60;;;;;;5030012;28;20523;-84
2022/07/15 02:52:17;;;;;;;2.93;1.80;;;19.30;84.50;;;;;;5030181;28;20459;-87
2022/07/15 02:54:52;;;;;;;4.13;1.83;;;19.30;84.20;;;;;;5029089;28;20464;-84
2022/07/15 02:57:22;;;;;;;4.00;2.10;;;19.30;84.10;;;;;;5044454;28;20456;-84
2022/07/15 02:59:53;;;;;;;2.07;1.57;;;19.40;84.50;;;;;;5024650;28;20536;-84
2022/07/15 03:02:20;;;;;;;3.37;1.80;;;19.30;84.40;;;;;;5024697;28;20457;-86
2022/07/15 03:05:06;;;;;;;2.83;1.47;;;19.20;84.50;;;;;;5027240;28;20457;-86
2022/07/15 03:07:36;;;;;;;5.27;1.97;;;19.40;84.30;;;;;;5029763;28;20454;-87
2022/07/15 03:10:24;;;;;;;2.90;2.00;;;19.30;84.60;;;;;;5016741;28;20552;-84
2022/07/15 03:12:54;;;;;;;3.70;1.50;;;19.30;85.10;;;;;;5030790;28;20465;-84
2022/07/15 03:15:38;;;;;;;3.43;1.57;;;19.30;85.10;;;;;;5033981;28;20529;-84
2022/07/15 03:18:05;;;;;;;5.90;1.80;;;19.30;85.40;;;;;;5032335;28;20473;-83
2022/07/15 03:20:36;;;;;;;6.30;1.63;;;19.30;85.60;;;;;;5020336;28;20472;-83
2022/07/15 03:23:06;;;;;;;6.47;1.73;;;19.40;85.20;;;;;;5020140;28;21296;-84
2022/07/15 03:25:37;;;;;;;3.47;1.50;;;19.20;85.50;;;;;;5019043;28;21014;-86
2022/07/15 03:28:10;;;;;;;5.00;1.77;;;19.20;86.70;;;;;;5020123;28;22055;-84
2022/07/15 03:30:37;;;;;;;4.57;1.80;;;19.30;86.00;;;;;;5021958;28;20547;-85
2022/07/15 03:33:08;;;;;;;4.83;2.07;;;19.20;86.30;;;;;;5026469;28;20453;-83
2022/07/15 03:35:35;;;;;;;4.90;1.87;;;19.20;86.10;;;;;;5049069;28;20457;-85
2022/07/15 03:38:02;;;;;;;3.43;1.87;;;19.30;85.90;;;;;;5039710;28;20469;-87
2022/07/15 03:41:00;;;;;;;5.43;2.10;;;19.20;86.40;;;;;;5033677;28;20481;-84
2022/07/15 03:43:29;;;;;;;4.87;1.50;;;19.20;86.80;;;;;;5028136;28;20597;-85
2022/07/15 03:46:06;;;;;;;3.83;1.83;;;19.20;87.40;;;;;;5033280;28;20477;-84
2022/07/15 03:49:02;;;;;;;6.63;1.90;;;19.20;87.70;;;;;;5034987;28;20512;-84
2022/07/15 03:52:04;;;;;;;3.90;2.00;;;19.20;88.10;;;;;;5034843;28;20684;-85
2022/07/15 03:54:37;;;;;;;5.90;1.80;;;19.10;88.20;;;;;;5042366;28;20992;-85
2022/07/15 03:57:07;;;;;;;6.27;1.73;;;19.20;87.90;;;;;;5045834;28;20449;-85
2022/07/15 03:59:37;;;;;;;4.83;1.77;;;19.20;88.20;;;;;;5049160;28;20475;-85
2022/07/15 04:02:04;;;;;;;3.90;1.90;;;19.20;88.30;;;;;;5044662;28;21158;-83
2022/07/15 04:04:32;;;;;;;4.43;1.53;;;19.30;88.50;;;;;;5027635;28;20579;-84
2022/07/15 04:07:00;;;;;;;3.40;2.03;;;19.20;88.50;;;;;;5027986;28;20453;-86
2022/07/15 04:09:27;;;;;;;2.10;1.53;;;19.20;89.00;;;;;;5030702;28;20476;-85
2022/07/15 04:11:54;;;;;;;3.10;1.80;;;19.10;89.40;;;;;;5034941;28;20456;-84
2022/07/15 04:14:22;;;;;;;5.60;2.10;;;19.00;89.50;;;;;;5032069;28;20458;-86
2022/07/15 04:16:49;;;;;;;8.70;2.03;;;19.00;90.00;;;;;;5031520;28;20573;-86
2022/07/15 04:19:16;;;;;;;3.60;1.97;;;18.90;90.10;;;;;;5033517;28;20513;-85
2022/07/15 04:21:44;;;;;;;5.10;2.23;;;18.90;90.40;;;;;;5036254;28;20897;-85
2022/07/15 04:24:11;;;;;;;3.20;2.20;;;19.00;90.50;;;;;;5037203;28;20930;-84
2022/07/15 04:26:38;;;;;;;4.17;1.90;;;19.00;90.70;;;;;;5033135;28;20453;-84
2022/07/15 04:29:07;;;;;;;7.53;2.93;;;19.00;91.00;;;;;;5035771;28;20481;-86
2022/07/15 04:31:48;;;;;;;4.20;2.63;;;18.90;91.30;;;;;;5022854;28;21000;-85
2022/07/15 04:34:17;;;;;;;5.67;2.53;;;18.90;91.80;;;;;;5035264;28;20459;-84
2022/07/15 04:37:05;;;;;;;5.03;2.73;;;18.80;92.20;;;;;;5035845;28;21642;-84
2022/07/15 04:39:35;;;;;;;4.37;3.20;;;18.80;92.50;;;;;;5035185;28;20764;-86
2022/07/15 04:42:05;;;;;;;7.07;2.80;;;18.80;92.80;;;;;;5032124;28;20552;-86
2022/07/15 04:44:32;;;;;;;6.83;2.63;;;18.80;93.00;;;;;;5044885;28;21079;-85
2022/07/15 04:47:02;;;;;;;3.10;2.13;;;18.80;93.10;;;;;;5032873;28;20449;-84
2022/07/15 04:53:10;;;;;;;5.03;2.83;;;18.90;93.20;;;;;;5030135;28;20457;-84
2022/07/15 04:55:39;;;;;;;7.47;2.57;;;18.90;93.10;;;;;;5033676;28;20443;-86
2022/07/15 04:58:20;;;;;;;5.90;2.20;;;18.90;93.30;;;;;;5034129;28;20535;-85
2022/07/15 05:00:48;;;;;;;5.23;2.67;;;18.90;93.50;;;;;;5042000;28;20511;-87
2022/07/15 05:03:18;;;;;;;6.53;2.80;;;18.90;93.20;;;;;;5040895;28;20497;-87
2022/07/15 05:05:54;;;;;;;6.37;2.63;;;18.90;93.10;;;;;;5040344;28;20445;-87
2022/07/15 05:08:21;;;;;;;3.33;2.73;;;19.00;93.20;;;;;;5039666;28;20489;-88
2022/07/15 05:10:58;;;;;;;6.10;3.10;;;19.10;93.10;;;;;;5043514;28;20461;-83
2022/07/15 05:13:37;;;;;;;5.90;2.60;;;18.90;93.10;;;;;;5045916;28;20461;-84
2022/07/15 05:16:04;;;;;;;6.73;2.87;;;19.00;93.20;;;;;;5044975;28;20456;-85
2022/07/15 05:19:03;;;;;;;5.10;4.60;;;19.10;93.10;;;;;;5044063;28;20488;-84
2022/07/15 05:21:30;;;;;;;5.43;2.67;;;19.10;93.00;;;;;;5042690;28;20457;-85
2022/07/15 05:24:16;;;;;;;4.83;2.77;;;19.10;93.10;;;;;;5040143;28;20531;-86
2022/07/15 05:27:18;;;;;;;3.87;2.80;;;19.10;93.20;;;;;;5044822;28;20445;-86
2022/07/15 05:29:56;;;;;;;4.20;3.07;;;19.00;93.30;;;;;;5042922;28;20461;-86
2022/07/15 05:32:23;;;;;;;5.33;3.13;;;19.10;93.30;;;;;;5046204;28;20454;-87
2022/07/15 05:34:50;;;;;;;6.63;3.07;;;19.20;93.10;;;;;;5044062;28;20489;-87
2022/07/15 05:37:27;;;;;;;5.60;3.27;;;19.20;93.00;;;;;;5038737;28;20457;-86
2022/07/15 05:40:15;;;;;;;7.53;3.17;;;19.20;93.00;;;;;;5038269;28;20475;-86
2022/07/15 05:42:56;;;;;;;5.97;3.33;;;19.10;93.10;;;;;;5041926;28;20449;-84
2022/07/15 05:45:26;;;;;;;7.07;2.90;;;19.10;93.20;;;;;;5044396;28;20425;-85
2022/07/15 05:47:53;;;;;;;8.87;3.40;;;19.30;93.10;;;;;;5046137;28;20471;-86
2022/07/15 05:50:27;;;;;;;8.50;4.50;;;19.30;93.30;;;;;;5045854;28;20481;-86
2022/07/15 05:53:00;;;;;;;5.17;3.33;;;19.30;93.00;;;;;;5047210;28;20524;-86
2022/07/15 05:55:32;;;;;;;5.47;3.07;;;19.30;93.00;;;;;;5043475;28;20441;-84
2022/07/15 05:57:59;;;;;;;6.33;3.50;;;19.30;93.00;;;;;;5047722;28;20500;-84
2022/07/15 06:00:26;;;;;;;5.93;3.30;;;19.30;93.00;;;;;;5047195;28;20462;-86
2022/07/15 06:02:53;;;;;;;8.27;3.77;;;19.30;93.00;;;;;;5046451;28;20472;-85
2022/07/15 06:05:28;;;;;;;6.33;3.30;;;19.30;92.90;;;;;;5046474;28;20479;-87
2022/07/15 06:07:57;;;;;;;5.63;3.10;;;19.40;92.80;;;;;;5040295;28;20496;-87
2022/07/15 06:10:28;;;;;;;3.80;2.90;;;19.50;92.50;;;;;;5041793;28;20461;-84
2022/07/15 06:12:55;;;;;;;4.77;2.73;;;19.30;92.70;;;;;;5036696;28;20457;-83
2022/07/15 06:15:31;;;;;;;5.83;3.17;;;19.30;92.90;;;;;;5033406;28;20548;-85
2022/07/15 06:17:58;;;;;;;5.90;3.10;;;19.30;92.90;;;;;;5029850;28;20553;-84
2022/07/15 06:20:27;;;;;;;6.70;2.93;;;19.40;93.00;;;;;;5034531;28;21643;-84
2022/07/15 06:22:57;;;;;;;7.00;2.70;;;19.50;92.80;;;;;;5035659;28;20449;-84
2022/07/15 06:25:49;;;;;;;4.87;2.90;;;19.30;92.70;;;;;;5035150;28;20453;-86
2022/07/15 06:28:22;;;;;;;3.47;2.33;;;19.30;92.90;;;;;;5034768;28;20481;-85
2022/07/15 06:30:52;;;;;;;4.17;3.10;;;19.30;93.30;;;;;;5038986;28;20458;-84
2022/07/15 06:33:19;;;;;;;8.07;3.77;;;19.30;92.90;;;;;;5036059;28;20469;-86
2022/07/15 06:35:46;;;;;;;3.87;2.60;;;19.40;92.80;;;;;;5038591;28;20958;-84
2022/07/15 06:38:18;;;;;;;5.60;2.60;;;19.50;91.90;;;;;;5038203;28;20465;-86
2022/07/15 06:40:46;;;;;;;6.47;2.80;;;19.50;91.50;;;;;;5044600;28;20484;-84
2022/07/15 06:43:18;;;;;;;4.90;2.73;;;19.60;91.40;;;;;;5047665;28;20536;-86
2022/07/15 06:45:50;;;;;;;5.33;2.60;;;19.60;91.30;;;;;;5042330;28;20449;-87
2022/07/15 06:48:19;;;;;;;5.20;2.50;;;19.70;91.10;;;;;;5030280;28;21769;-86
2022/07/15 06:50:54;;;;;;;6.40;2.83;;;19.80;91.00;;;;;;5031547;28;20491;-86
2022/07/15 06:53:21;;;;;;;4.90;2.90;;;20.10;90.50;;;;;;5030201;28;20457;-85
2022/07/15 06:56:04;;;;;;;5.10;3.10;;;20.30;88.10;;;;;;5030507;28;20465;-86
2022/07/15 06:58:31;;;;;;;4.83;3.00;;;20.10;88.70;;;;;;5046004;28;20466;-86
2022/07/15 07:01:01;;;;;;;4.40;3.10;;;20.10;89.10;;;;;;5030392;28;20462;-88
2022/07/15 07:04:04;;;;;;;7.33;3.07;;;19.80;89.60;;;;;;5048129;28;20475;-86
2022/07/15 07:07:17;;;;;;;5.30;3.93;;;19.60;90.30;;;;;;5043945;28;20425;-85
2022/07/15 07:09:47;;;;;;;7.40;3.53;;;19.50;90.80;;;;;;4982751;28;20467;-85
2022/07/15 07:12:17;;;;;;;8.00;2.90;;;19.40;90.70;;;;;;5032351;28;20813;-84
2022/07/15 07:14:46;;;;;;;4.90;3.63;;;19.50;90.80;;;;;;5034137;28;20488;-85
2022/07/15 07:17:24;;;;;;;8.83;3.70;;;19.60;90.90;;;;;;5032734;28;20457;-85
2022/07/15 07:19:58;;;;;;;8.37;3.87;;;19.70;90.70;;;;;;5032405;28;20476;-86
2022/07/15 07:22:29;;;;;;;5.63;3.63;;;19.80;90.20;;;;;;5032538;28;20453;-85
2022/07/15 07:25:14;;;;;;;7.67;2.97;;;19.70;89.10;;;;;;5033759;28;20470;-86
2022/07/15 07:27:42;;;;;;;8.93;3.80;;;20.00;88.90;;;;;;5030940;28;20468;-85
2022/07/15 07:30:18;;;;;;;3.10;2.67;;;20.00;88.00;;;;;;5031341;28;20513;-84
2022/07/15 07:32:44;;;;;;;2.77;2.43;;;20.00;87.70;;;;;;5035721;28;20453;-86
2022/07/15 07:35:17;;;;;;;5.33;2.83;;;20.10;86.30;;;;;;5052450;28;20475;-85
2022/07/15 07:37:45;;;;;;;5.80;3.10;;;19.80;85.60;;;;;;5035900;28;20456;-86
2022/07/15 07:40:19;;;;;;;3.50;2.67;;;19.80;86.20;;;;;;5037475;28;20464;-84
2022/07/15 07:42:50;;;;;;;4.40;2.30;;;19.90;85.90;;;;;;5033968;28;20454;-85
2022/07/15 07:45:19;;;;;;;6.10;2.50;;;20.10;84.20;;;;;;5033272;28;20545;-86
2022/07/15 07:47:50;;;;;;;2.03;1.83;;;20.30;82.30;;;;;;5032691;28;22331;-85
2022/07/15 07:50:19;;;;;;;3.47;2.60;;;20.50;80.90;;;;;;5035478;28;20468;-86
2022/07/15 07:52:47;;;;;;;2.63;2.43;;;20.60;79.50;;;;;;5047524;28;20480;-84
2022/07/15 07:55:23;;;;;;;4.40;2.37;;;20.60;77.60;;;;;;5038539;28;20907;-83
2022/07/15 07:57:56;;;;;;;4.20;2.30;;;20.60;76.70;;;;;;5042718;28;20479;-86
2022/07/15 08:00:27;;;;;;;7.57;2.17;;;20.60;74.30;;;;;;5051114;28;20433;-88
2022/07/15 08:02:56;;;;;;;5.53;2.23;;;20.70;75.40;;;;;;5049084;28;20492;-86
2022/07/15 08:05:30;;;;;;;4.10;2.17;;;21.10;75.70;;;;;;5047146;28;20583;-84
2022/07/15 08:08:37;;;;;;;2.50;1.83;;;21.70;72.80;;;;;;5039784;28;20472;-84
2022/07/15 08:11:06;;;;;;;2.97;1.63;;;21.50;72.20;;;;;;5041049;28;20454;-85
2022/07/15 08:13:38;;;;;;;3.50;1.47;;;22.10;68.60;;;;;;5037332;28;20978;-85
2022/07/15 08:16:15;;;;;;;1.80;1.30;;;21.90;65.60;;;;;;5039540;28;20445;-83
2022/07/15 08:19:03;;;;;;;2.27;1.00;;;22.10;61.50;;;;;;5040872;28;20492;-85
2022/07/15 08:21:31;;;;;;;2.53;1.03;;;21.70;62.30;;;;;;5045783;28;20495;-85
2022/07/15 08:24:12;;;;;;;1.17;0.73;;;22.50;57.50;;;;;;5063201;28;20469;-85
2022/07/15 08:27:12;;;;;;;2.40;1.20;;;23.00;54.30;;;;;;5047551;28;20447;-86
2022/07/15 08:29:55;;;;;;;6.33;1.20;;;22.90;53.50;;;;;;5036209;28;20456;-83
2022/07/15 08:32:45;;;;;;;1.73;0.97;;;23.90;51.20;;;;;;5047332;28;20449;-86
2022/07/15 08:35:43;;;;;;;0.90;0.70;;;24.40;49.50;;;;;;5046492;28;20465;-84
2022/07/15 08:38:12;;;;;;;1.67;1.20;;;23.90;49.90;;;;;;5037943;28;20479;-85
2022/07/15 08:40:54;;;;;;;;;;;;;;;;;;;;;
2022/07/15 08:43:45;;;;;;;1.87;1.20;;;23.60;52.60;;;;;;5131356;22;20502;-87
2022/07/15 08:46:22;;;;;;;3.50;0.90;;;23.80;52.20;;;;;;5087808;28;20501;-85
2022/07/15 08:49:11;;;;;;;3.27;0.90;;;24.80;49.50;;;;;;5051372;28;20460;-85
2022/07/15 08:51:46;;;;;;;2.00;0.90;;;24.60;48.20;;;;;;5494264;22;20473;-84
2022/07/15 08:54:30;;;;;;;2.93;2.03;;;24.70;48.10;;;;;;5038613;28;20449;-84
2022/07/15 08:57:01;;;;;;;3.47;1.00;;;25.20;47.60;;;;;;5040533;28;20445;-85
2022/07/15 08:59:30;;;;;;;2.40;0.90;;;24.60;49.10;;;;;;5041722;28;20472;-84
2022/07/15 09:01:59;;;;;;;6.17;5.57;;;23.90;49.70;;;;;;5040987;28;20532;-84
2022/07/15 09:04:26;;;;;;;2.50;1.13;;;23.40;51.00;;;;;;5038237;28;20460;-85
2022/07/15 09:07:04;;;;;;;1.70;1.30;;;23.30;51.60;;;;;;5043223;28;20468;-85
2022/07/15 09:09:40;;;;;;;3.40;1.40;;;23.30;51.70;;;;;;5057387;28;20495;-85
2022/07/15 09:12:10;;;;;;;3.50;1.50;;;23.30;52.00;;;;;;5052762;28;20539;-84
2022/07/15 09:14:44;;;;;;;4.10;1.30;;;23.00;52.30;;;;;;5053909;28;20457;-85
2022/07/15 09:17:12;;;;;;;2.90;1.20;;;23.40;52.30;;;;;;5053773;28;20496;-87
2022/07/15 09:20:07;;;;;;;3.20;1.70;;;23.50;51.80;;;;;;5069579;28;20541;-87
2022/07/15 09:22:53;;;;;;;3.03;1.53;;;23.10;52.80;;;;;;5063186;28;20489;-85
2022/07/15 09:25:27;;;;;;;6.03;1.77;;;22.70;54.00;;;;;;5050813;28;20472;-86
2022/07/15 09:28:30;;;;;;;;;;;;;;;;;;;;;
2022/07/15 09:38:28;;;;;;;3.30;1.60;;;26.40;48.20;;;;;;5045261;28;20523;-84
2022/07/15 09:41:28;;;;;;;2.87;1.20;;;25.60;48.10;;;;;;5028440;28;20469;-84
2022/07/15 09:44:14;;;;;;;2.80;1.40;;;25.60;48.60;;;;;;5050940;28;21055;-85
2022/07/15 09:47:45;;;;;;;3.57;1.93;;;26.60;47.70;;;;;;5037064;28;21344;-85
2022/07/15 09:51:09;;;;;;;5.17;1.50;;;26.20;46.50;;;;;;5048827;28;20483;-83
2022/07/15 09:53:42;;;;;;;4.20;2.60;;;25.60;47.90;;;;;;5050583;28;20476;-86
2022/07/15 09:56:22;;;;;;;4.37;2.40;;;26.20;48.50;;;;;;5043613;28;20509;-87
2022/07/15 09:59:02;;;;;;;2.40;2.20;;;26.00;48.20;;;;;;5061261;28;20518;-85
2022/07/15 10:09:12;;;;;;;2.90;2.33;;;25.80;48.50;;;;;;4968788;28;21038;-86
2022/07/15 10:11:48;;;;;;;2.77;2.03;;;27.10;45.80;;;;;;4990715;28;20480;-89
2022/07/15 10:14:27;;;;;;;4.57;2.10;;;26.30;46.10;;;;;;5038458;28;20460;-84
2022/07/15 10:17:20;;;;;;;4.67;2.40;;;26.40;47.10;;;;;;5045896;28;20539;-87
2022/07/15 10:20:16;;;;;;;4.30;2.13;;;26.80;46.20;;;;;;5029026;28;20476;-86
2022/07/15 10:23:22;;;;;;;2.63;2.03;;;27.70;45.50;;;;;;5046644;28;20460;-85
2022/07/15 10:26:32;;;;;;;3.80;2.50;;;27.80;44.40;;;;;;5027365;28;20565;-85
2022/07/15 10:29:04;;;;;;;4.20;2.23;;;28.10;43.80;;;;;;5023555;28;20480;-87
2022/07/15 10:31:38;;;;;;;3.30;2.20;;;29.40;41.70;;;;;;5045907;28;20451;-86
2022/07/15 10:34:13;;;;;;;2.70;2.20;;;29.00;40.10;;;;;;5047459;28;20463;-86
2022/07/15 10:36:47;;;;;;;5.67;1.87;;;29.90;39.90;;;;;;5045139;28;20492;-87
2022/07/15 10:39:17;;;;;;;4.40;1.93;;;30.00;39.30;;;;;;5048162;28;20480;-87
2022/07/15 10:41:52;;;;;;;6.17;2.93;;;29.00;40.00;;;;;;5047855;28;20467;-85
2022/07/15 10:44:25;;;;;;;5.33;2.23;;;27.80;41.90;;;;;;5036092;28;20483;-87
2022/07/15 10:47:11;;;;;;;2.70;2.07;;;27.10;43.30;;;;;;5049961;28;20453;-86
2022/07/15 10:49:45;;;;;;;2.27;1.80;;;27.00;44.20;;;;;;5050446;28;20507;-86
2022/07/15 10:52:20;;;;;;;3.83;1.73;;;26.40;44.40;;;;;;5037790;28;20543;-87
2022/07/15 10:55:00;;;;;;;5.00;1.90;;;26.20;44.80;;;;;;5034889;28;20494;-85
2022/07/15 10:57:42;;;;;;;3.93;2.27;;;26.10;44.80;;;;;;5042033;28;20440;-87
2022/07/15 11:00:31;;;;;;;3.40;1.90;;;26.00;45.20;;;;;;5045916;28;21211;-88
2022/07/15 11:03:14;;;;;;;3.63;1.80;;;26.60;44.60;;;;;;5060563;28;20453;-88
2022/07/15 11:06:01;;;;;;;3.97;2.37;;;28.60;41.90;;;;;;5044770;28;20551;-88
2022/07/15 11:08:36;;;;;;;2.70;1.60;;;28.40;41.50;;;;;;5058952;28;20468;-89
2022/07/15 11:11:13;;;;;;;1.70;1.10;;;28.60;41.90;;;;;;5045095;28;20543;-86
2022/07/15 11:13:47;;;;;;;1.90;1.43;;;28.40;39.90;;;;;;5058686;28;20460;-87
2022/07/15 11:16:24;;;;;;;3.17;1.20;;;28.10;40.30;;;;;;5044509;28;20552;-88
2022/07/15 11:31:03;;;;;;;3.10;1.20;;;29.80;37.20;;;;;;4970872;28;20463;-85
2022/07/15 11:34:12;;;;;;;1.73;1.13;;;28.00;38.60;;;;;;5003682;28;20448;-86
2022/07/15 11:36:44;;;;;;;1.83;1.13;;;26.90;40.30;;;;;;5034001;28;20471;-86
2022/07/15 11:39:54;;;;;;;1.57;1.20;;;26.60;41.30;;;;;;5048294;28;20480;-86
2022/07/15 11:45:46;;;;;;;2.93;0.90;;;26.90;41.40;;;;;;5050958;28;20586;-87
2022/07/15 11:48:16;;;;;;;2.83;1.10;;;26.90;41.30;;;;;;5054494;28;20508;-85
2022/07/15 11:50:56;;;;;;;3.93;0.83;;;27.00;40.90;;;;;;5052330;28;20504;-87
2022/07/15 11:54:02;;;;;;;1.73;1.33;;;27.10;41.00;;;;;;5055285;28;20464;-87
2022/07/15 12:01:08;;;;;;;2.50;1.30;;;27.50;40.50;;;;;;5051565;28;20455;-83
2022/07/15 12:03:42;;;;;;;1.60;1.00;;;28.00;39.50;;;;;;5065273;28;20440;-87
2022/07/15 12:06:19;;;;;;;2.53;0.90;;;28.20;39.20;;;;;;5053701;28;20479;-86
2022/07/15 12:08:52;;;;;;;2.50;1.17;;;27.70;39.60;;;;;;5059072;28;20483;-85
2022/07/15 12:11:36;;;;;;;1.30;1.20;;;27.10;40.10;;;;;;5037913;28;20925;-85
2022/07/15 12:14:08;;;;;;;3.43;1.00;;;26.40;41.60;;;;;;5038438;28;20467;-83
2022/07/15 12:16:52;;;;;;;1.43;1.03;;;26.50;42.00;;;;;;5053769;28;20453;-84
2022/07/15 12:22:16;;;;;;;2.87;0.97;;;26.40;42.40;;;;;;5043864;28;20445;-86
2022/07/15 12:24:52;;;;;;;2.80;1.20;;;26.80;42.60;;;;;;5047725;28;20575;-85
2022/07/15 12:32:48;;;;;;;1.57;0.90;;;27.50;40.00;;;;;;5095131;22;20499;-84
2022/07/15 12:35:16;;;;;;;2.30;1.23;;;27.60;39.90;;;;;;5052747;28;20456;-85
2022/07/15 12:37:48;;;;;;;1.47;1.07;;;27.30;40.10;;;;;;5037929;28;20455;-84
2022/07/15 12:40:23;;;;;;;1.77;1.13;;;26.40;41.20;;;;;;5049765;28;20453;-84
2022/07/15 12:42:53;;;;;;;2.73;1.17;;;26.10;42.00;;;;;;5036981;28;20449;-88
2022/07/15 12:45:24;;;;;;;2.37;1.30;;;26.00;42.20;;;;;;5036337;28;20490;-83
2022/07/15 12:48:09;;;;;;;2.77;1.27;;;26.00;42.60;;;;;;5040801;28;20480;-85
2022/07/15 12:50:49;;;;;;;3.13;2.23;;;26.20;42.50;;;;;;5035629;28;20467;-84
2022/07/15 12:53:27;;;;;;;3.73;1.43;;;26.00;42.60;;;;;;5053434;28;20547;-86
2022/07/15 12:56:00;;;;;;;3.20;1.03;;;26.00;42.60;;;;;;5040664;28;20457;-85
2022/07/15 12:58:32;;;;;;;1.77;1.17;;;25.80;43.20;;;;;;5040159;28;20485;-86
2022/07/15 13:01:05;;;;;;;3.03;0.97;;;25.90;43.40;;;;;;5038884;28;20445;-85
2022/07/15 13:03:33;;;;;;;3.30;1.23;;;26.30;43.40;;;;;;5055821;28;20433;-86
2022/07/15 13:06:01;;;;;;;2.07;1.20;;;26.10;43.10;;;;;;5052777;28;20538;-84
2022/07/15 13:08:32;;;;;;;2.43;1.30;;;25.90;43.10;;;;;;5029178;28;20507;-84
2022/07/15 13:11:00;;;;;;;4.70;1.37;;;26.00;43.30;;;;;;5044773;28;21384;-85
2022/07/15 13:13:30;;;;;;;2.27;1.13;;;26.70;43.10;;;;;;5045712;28;20440;-87
2022/07/15 13:15:58;;;;;;;2.00;0.80;;;27.00;42.00;;;;;;5046809;28;20453;-86
2022/07/15 13:18:26;;;;;;;4.70;1.07;;;26.90;41.60;;;;;;5027185;28;20484;-85
2022/07/15 13:20:54;;;;;;;2.43;1.30;;;26.50;42.10;;;;;;5045022;28;20464;-85
2022/07/15 13:23:25;;;;;;;2.90;1.50;;;26.50;41.70;;;;;;5032713;28;20572;-86
2022/07/15 13:25:54;;;;;;;3.33;1.50;;;26.40;41.80;;;;;;5026388;28;20655;-85
2022/07/15 13:28:22;;;;;;;1.37;0.80;;;26.10;42.70;;;;;;5009226;28;22321;-84
2022/07/15 13:30:49;;;;;;;1.60;1.10;;;26.00;43.00;;;;;;5027263;28;21141;-85
2022/07/15 13:33:16;;;;;;;2.40;1.53;;;26.00;43.20;;;;;;5045738;28;20580;-85
2022/07/15 13:35:43;;;;;;;4.67;1.13;;;26.00;43.30;;;;;;5044920;28;20459;-86
2022/07/15 13:38:10;;;;;;;2.40;0.80;;;26.00;42.80;;;;;;5046889;28;20481;-86
2022/07/15 13:40:37;;;;;;;2.30;1.33;;;25.70;43.10;;;;;;5045375;28;20468;-83
2022/07/15 13:43:03;;;;;;;2.63;1.00;;;25.70;43.40;;;;;;5029641;28;20456;-82
2022/07/15 13:45:30;;;;;;;3.87;1.20;;;25.70;43.90;;;;;;5028599;28;20777;-86
2022/07/15 13:47:58;;;;;;;3.63;1.10;;;25.80;44.50;;;;;;5030043;28;20499;-83
2022/07/15 13:53:10;;;;;;;2.60;1.20;;;26.40;43.00;;;;;;5048165;28;20463;-86
2022/07/15 13:55:39;;;;;;;1.97;1.30;;;26.30;43.40;;;;;;5047597;28;20453;-85
2022/07/15 13:58:06;;;;;;;1.13;0.90;;;26.20;43.60;;;;;;5048702;28;20954;-85
2022/07/15 14:00:33;;;;;;;2.47;1.03;;;26.00;43.80;;;;;;5031219;28;21016;-86
2022/07/15 14:03:00;;;;;;;4.43;0.90;;;26.00;43.70;;;;;;5047015;28;20463;-84
2022/07/15 14:05:27;;;;;;;2.20;0.90;;;26.40;43.50;;;;;;5044408;28;20505;-84
2022/07/15 14:07:55;;;;;;;4.40;1.37;;;26.70;42.40;;;;;;5057672;28;20496;-84
2022/07/15 14:10:22;;;;;;;3.50;0.90;;;26.30;42.60;;;;;;5048393;28;20448;-83
2022/07/15 14:12:49;;;;;;;3.50;2.20;;;26.20;42.70;;;;;;5050918;28;20467;-85
2022/07/15 14:15:15;;;;;;;2.60;0.80;;;26.30;42.40;;;;;;5048824;28;20468;-86
2022/07/15 14:17:49;;;;;;;2.73;1.50;;;26.10;42.80;;;;;;5032461;28;20448;-87